Hopkinsville, KY

4:45 PM CDT on July 30, 2016 (GMT -0500)
| | Change Station

Elev -9999 ft 0.00 °N, 0.00 °E | Updated

Partly Cloudy
Partly Cloudy
83 °F
Feels Like 87 °F
N
4
Wind Variable Wind from West
Gusts mph

Today
High -- | Low -- °F
--% Chance of Precip.
Yesterday
High -- | Low -- °F
Precip. -- in
Pressure 29.95 in
Visibility 10.0 miles
Clouds Few 3800 ft
Scattered Clouds 4800 ft
Heat Index 87 °F
Dew Point 72 °F
Humidity 69%
Rainfall --
Snow Depth Not available.
5:54 AM 7:58 PM
Waning Crescent, 11% visible
METAR KHOP 302058Z AUTO 25004KT 10SM FEW038 SCT048 29/21 A2996 RMK AO2 SLP142 T02910214 56012
Pressure 29.95 in
Visibility 10.0 miles
Clouds Few 3800 ft
Scattered Clouds 4800 ft
Heat Index 87 °F
Dew Point 72 °F
Humidity 69%
Rainfall --
Snow Depth Not available.
5:54 AM 7:58 PM
Waning Crescent, 11% visible
METAR KHOP 302058Z AUTO 25004KT 10SM FEW038 SCT048 29/21 A2996 RMK AO2 SLP142 T02910214 56012

10-Day Weather Forecast

Almanac

Astronomy

Jul. 30, 2016 Rise Set
Actual Time
Civil Twilight
Nautical Twilight
Astronomical Twilight
Moon
Length of Visible Light
Length of Day
Tomorrow will be .
, % of the Moon is Illuminated

Today's Extremes

State Highs State Lows

Community

WunderPhotos

Upload Photos

1,928,657 photos uploaded!

WunderBlog® & News

Nearby

Air Quality

  Air Quality AQ Index Pollutant
Not available.

Snow Depth

Station Depth Elevation

Earthquake Activity

City Distance Mag. Time & Date
Minimum magnitude displayed is 2.5.

Coastal Water Temperatures

Place Temperature

Stations

Nearby Weather Stations

Station Location Temp. Windchill Dew Point Humidity Wind Precip. Elev Updated Type
                   

Watches & Warnings

There are currently no watches in effect.